This is the latest recevied weather packets stored in our database for station/object WP3OF-5. If no packets are shown the sender has not sent any weather packets the latest 10 day(s).
| Time | Temp. | Humidity | Pressure | Rain* | Wind** | Luminosity | Snow |
|---|---|---|---|---|---|---|---|
| 1777405366 | 25° C | 89% | 1015.8 hPa | 0 mm | - | - | - |
| 1777405062 | 25° C | 89% | 1015.8 hPa | 0 mm | - | - | - |
| 1777404757 | 25° C | 88% | 1015.8 hPa | 0 mm | - | - | - |
| 1777403540 | 24.44° C | 88% | 1015.8 hPa | 0 mm | - | - | - |
| 1777403235 | 24.44° C | 88% | 1015.7 hPa | 0 mm | - | - | - |
| 1777402626 | 24.44° C | 90% | 1016.2 hPa | 0 mm | - | - | - |
| 1777401115 | 25.56° C | 89% | 1016 hPa | 0 mm | - | - | - |
| 1777399900 | 26.11° C | 89% | 1016.3 hPa | 0 mm | - | - | - |
| 1777398689 | 25.56° C | 90% | 1016.2 hPa | 0 mm | - | - | - |
| 1777398386 | 25.56° C | 93% | 1016.4 hPa | 0 mm | - | - | - |
| 1777397779 | 24.44° C | 95% | 1016.4 hPa | 10.67 mm | - | - | - |
| 1777397474 | 24.44° C | 95% | 1016.4 hPa | 12.7 mm | - | - | - |
| 1777397171 | 23.89° C | 94% | 1016.7 hPa | 4.32 mm | - | - | - |
| 1777396564 | 23.89° C | 93% | 1016.5 hPa | 36.58 mm | - | - | - |
| 1777396261 | 24.44° C | 90% | 1016.7 hPa | 28.7 mm | - | - | - |
| 1777395652 | 26.67° C | 86% | 1016.5 hPa | 6.1 mm | - | - | - |
| 1777395047 | 28.33° C | 79% | 1016.6 hPa | 0 mm | - | - | - |
| 1777394136 | 29.44° C | 75% | 1016.6 hPa | 0 mm | - | - | - |
| 1777393832 | 29.44° C | 74% | 1016.7 hPa | 0 mm | - | - | - |
| 1777393530 | 30° C | 73% | 1016.8 hPa | 0 mm | - | - | - |
| 1777392924 | 30° C | 72% | 1016.8 hPa | 0 mm | - | - | - |
| 1777392320 | 30° C | 72% | 1016.8 hPa | 0 mm | - | - | - |
| 1777391716 | 30° C | 67% | 1017 hPa | 0 mm | - | - | - |
| 1777391109 | 30° C | 65% | 1017 hPa | 0 mm | - | - | - |
| 1777390502 | 29.44° C | 68% | 1017.1 hPa | 0 mm | - | - | - |
* Rain latest hour (hover to see other rain measurements)
** Current wind speed in m/s (hover to see current wind gust speed)